Saughall, United Kingdom
Current Conditions -  °F | °C
As of 7:20 AM on Wednesday 22 Oct 2014 (Local Time) from EGPK Reporting Station
Light Rain Light Rain  
Wind Chill: 50°   Ceiling: Unl
Heat Index: 50°   Visibility: 6mi
Dew Point: 48°   Wind: 13mph
Humidity: 94%   Direction: 240°WSW
Pressure: 30.12"   Gusts: NA
Location:  55.6°N, 4.22°W
Report Text: EGPK 220620Z 24011KT 9000 -RA FEW012 SCT023 10/09 Q1020
Loading
Personal Weather Stations






























Interactive Weather Map
Tropical Storm Tracking
New forecast layout! Learn more

10-Day Weather Forecast

Advertisements
Track Severe Weather on mobile